Time;durP1;ratioP1;P1;durP2;ratioP2;P2;SDS_P1;SDS_P2;PMS_P1;PMS_P2;Temp;Humidity;BMP_temperature;BMP_pressure;BME280_temperature;BME280_humidity;BME280_pressure;Samples;Min_cycle;Max_cycle;Signal;HPM_P1;HPM_P2
2024/03/08 00:00:32;;;;;;;50.50;19.97;;;;;;;;;;5056762;28;20034;-50
2024/03/08 00:02:58;;;;;;;45.08;20.58;;;;;;;;;;5056385;28;20342;-52
2024/03/08 00:05:24;;;;;;;49.83;19.88;;;;;;;;;;5062202;28;20431;-54
2024/03/08 00:07:49;;;;;;;69.90;24.87;;;;;;;;;;5062987;28;20089;-52
2024/03/08 00:10:14;;;;;;;40.43;18.33;;;;;;;;;;5064823;28;20025;-56
2024/03/08 00:12:44;;;;;;;50.00;19.60;;;;;;;;;;5056097;28;20041;-53
2024/03/08 00:15:14;;;;;;;48.95;19.80;;;;;;;;;;5046158;28;20048;-53
2024/03/08 00:17:40;;;;;;;49.03;20.33;;;;;;;;;;5061639;28;20037;-50
2024/03/08 00:20:08;;;;;;;49.78;19.40;;;;;;;;;;5061771;28;20065;-50
2024/03/08 00:22:33;;;;;;;43.45;18.67;;;;;;;;;;5055989;28;20039;-55
2024/03/08 00:24:59;;;;;;;62.58;24.95;;;;;;;;;;5056289;28;20030;-51
2024/03/08 00:27:24;;;;;;;46.87;19.97;;;;;;;;;;5056251;28;20045;-49
2024/03/08 00:29:50;;;;;;;49.50;20.20;;;;;;;;;;5048662;28;20059;-51
2024/03/08 00:32:16;;;;;;;52.07;20.93;;;;;;;;;;5050266;28;20255;-54
2024/03/08 00:34:42;;;;;;;54.97;19.95;;;;;;;;;;5056053;28;20025;-52
2024/03/08 00:37:08;;;;;;;43.20;19.70;;;;;;;;;;5054471;28;20101;-53
2024/03/08 00:39:34;;;;;;;94.63;30.97;;;;;;;;;;5061726;28;20033;-54
2024/03/08 00:41:59;;;;;;;50.83;21.63;;;;;;;;;;5058364;28;20021;-51
2024/03/08 00:44:25;;;;;;;47.90;20.17;;;;;;;;;;5056274;28;20368;-48
2024/03/08 00:46:51;;;;;;;52.83;20.58;;;;;;;;;;5055678;28;20025;-54
2024/03/08 00:49:17;;;;;;;65.15;24.52;;;;;;;;;;5057540;28;20033;-49
2024/03/08 00:51:43;;;;;;;45.13;18.93;;;;;;;;;;5057512;28;20037;-53
2024/03/08 00:54:08;;;;;;;44.40;18.90;;;;;;;;;;5054149;28;20046;-51
2024/03/08 00:56:35;;;;;;;44.90;20.13;;;;;;;;;;5055816;28;20030;-52
2024/03/08 00:59:00;;;;;;;42.33;19.30;;;;;;;;;;5058507;28;20303;-54
2024/03/08 01:01:26;;;;;;;51.13;21.27;;;;;;;;;;5054853;28;20053;-50
2024/03/08 01:03:52;;;;;;;47.85;20.02;;;;;;;;;;5053339;28;20076;-51
2024/03/08 01:06:17;;;;;;;53.47;20.33;;;;;;;;;;5044214;28;20030;-50
2024/03/08 01:08:43;;;;;;;46.97;22.63;;;;;;;;;;5045325;28;20284;-49
2024/03/08 01:11:09;;;;;;;53.30;19.60;;;;;;;;;;5066861;28;20067;-50
2024/03/08 01:13:35;;;;;;;49.43;20.00;;;;;;;;;;5058088;28;20049;-51
2024/03/08 01:16:00;;;;;;;57.10;23.13;;;;;;;;;;5057770;28;20302;-53
2024/03/08 01:18:26;;;;;;;45.92;19.77;;;;;;;;;;5055302;28;20036;-51
2024/03/08 01:20:52;;;;;;;42.53;19.38;;;;;;;;;;5059434;28;20094;-53
2024/03/08 01:23:17;;;;;;;35.13;16.20;;;;;;;;;;5054500;28;20034;-53
2024/03/08 01:25:43;;;;;;;68.83;25.33;;;;;;;;;;5054857;28;20135;-54
2024/03/08 01:28:10;;;;;;;48.45;18.30;;;;;;;;;;5055184;28;20033;-54
2024/03/08 01:30:37;;;;;;;;;;;;;;;;;;5058008;28;20030;-55
2024/03/08 01:33:02;;;;;;;43.15;17.70;;;;;;;;;;5054557;28;19916;-49
2024/03/08 01:35:28;;;;;;;47.35;19.23;;;;;;;;;;5054681;28;20029;-55
2024/03/08 01:37:53;;;;;;;45.43;20.50;;;;;;;;;;5054793;28;20041;-54
2024/03/08 01:40:20;;;;;;;49.30;19.63;;;;;;;;;;5060090;28;20032;-55
2024/03/08 01:42:46;;;;;;;38.22;17.17;;;;;;;;;;5059588;28;20089;-51
2024/03/08 01:45:11;;;;;;;38.33;17.67;;;;;;;;;;5055101;28;20034;-54
2024/03/08 01:47:37;;;;;;;33.40;15.35;;;;;;;;;;5054168;28;20025;-53
2024/03/08 01:50:03;;;;;;;40.33;17.97;;;;;;;;;;5058602;28;20065;-52
2024/03/08 01:52:31;;;;;;;38.10;17.70;;;;;;;;;;5054181;28;20029;-51
2024/03/08 01:55:00;;;;;;;38.35;17.58;;;;;;;;;;5056035;28;20040;-52
2024/03/08 01:57:27;;;;;;;36.38;17.52;;;;;;;;;;5054798;28;20060;-54
2024/03/08 01:59:54;;;;;;;47.50;19.98;;;;;;;;;;5060064;28;20025;-52
2024/03/08 02:02:20;;;;;;;50.33;20.33;;;;;;;;;;5041861;28;20030;-51
2024/03/08 02:04:45;;;;;;;40.80;19.10;;;;;;;;;;5060989;28;20089;-55
2024/03/08 02:07:11;;;;;;;40.73;19.00;;;;;;;;;;5058592;28;20275;-54
2024/03/08 02:09:36;;;;;;;38.25;18.38;;;;;;;;;;5040593;28;20022;-52
2024/03/08 02:12:02;;;;;;;35.53;16.33;;;;;;;;;;5058004;28;20065;-51
2024/03/08 02:14:32;;;;;;;48.63;19.35;;;;;;;;;;5061223;28;20021;-50
2024/03/08 02:17:01;;;;;;;39.92;18.52;;;;;;;;;;5057289;28;20047;-54
2024/03/08 02:19:27;;;;;;;38.63;17.58;;;;;;;;;;5054662;28;20030;-48
2024/03/08 02:21:53;;;;;;;43.07;19.27;;;;;;;;;;5054319;28;20041;-53
2024/03/08 02:24:19;;;;;;;44.85;19.33;;;;;;;;;;5054150;28;20263;-54
2024/03/08 02:26:44;;;;;;;41.23;18.50;;;;;;;;;;5061127;28;20036;-51
2024/03/08 02:29:10;;;;;;;70.87;27.10;;;;;;;;;;5054237;28;20081;-49
2024/03/08 02:31:35;;;;;;;40.20;19.17;;;;;;;;;;5064641;28;20062;-51
2024/03/08 02:34:01;;;;;;;43.80;18.20;;;;;;;;;;5055253;28;20034;-49
2024/03/08 02:36:26;;;;;;;43.50;20.45;;;;;;;;;;5060330;28;20118;-48
2024/03/08 02:38:52;;;;;;;44.17;18.80;;;;;;;;;;5053822;28;20106;-53
2024/03/08 02:41:18;;;;;;;46.58;20.00;;;;;;;;;;5058098;28;20044;-56
2024/03/08 02:43:45;;;;;;;41.47;18.95;;;;;;;;;;5053589;28;20041;-53
2024/03/08 02:46:10;;;;;;;;;;;;;;;;;;5054334;28;20139;-51
2024/03/08 02:48:36;;;;;;;41.20;18.57;;;;;;;;;;5052441;28;19909;-51
2024/03/08 02:51:02;;;;;;;42.80;20.00;;;;;;;;;;5060454;28;20087;-53
2024/03/08 02:53:27;;;;;;;41.55;19.15;;;;;;;;;;5053761;28;20557;-55
2024/03/08 02:55:53;;;;;;;47.47;19.33;;;;;;;;;;5041663;28;20030;-48
2024/03/08 02:58:18;;;;;;;45.93;21.63;;;;;;;;;;5052268;28;20262;-54
2024/03/08 03:00:44;;;;;;;46.58;21.15;;;;;;;;;;5050195;28;20044;-53
2024/03/08 03:03:09;;;;;;;43.57;21.03;;;;;;;;;;5057989;28;20056;-54
2024/03/08 03:05:35;;;;;;;42.28;20.75;;;;;;;;;;5057299;28;20093;-55
2024/03/08 03:08:00;;;;;;;41.93;19.87;;;;;;;;;;5054091;28;20064;-50
2024/03/08 03:10:25;;;;;;;45.43;19.27;;;;;;;;;;5057853;28;20469;-50
2024/03/08 03:12:51;;;;;;;40.10;17.20;;;;;;;;;;5059455;28;20025;-50
2024/03/08 03:15:17;;;;;;;42.93;21.33;;;;;;;;;;5057237;28;20068;-51
2024/03/08 03:17:52;;;;;;;44.20;19.60;;;;;;;;;;5052024;28;20045;-53
2024/03/08 03:20:25;;;;;;;42.63;20.38;;;;;;;;;;5054317;28;20040;-51
2024/03/08 03:22:52;;;;;;;43.53;19.77;;;;;;;;;;5061936;28;20030;-54
2024/03/08 03:25:23;;;;;;;45.00;22.00;;;;;;;;;;5049281;28;20097;-50
2024/03/08 03:27:49;;;;;;;44.97;20.83;;;;;;;;;;5045072;28;20026;-48
2024/03/08 03:30:21;;;;;;;60.08;23.55;;;;;;;;;;5057774;28;20048;-54
2024/03/08 03:32:49;;;;;;;44.60;20.10;;;;;;;;;;5054434;28;20033;-52
2024/03/08 03:35:15;;;;;;;47.92;21.23;;;;;;;;;;5048644;28;20097;-55
2024/03/08 03:37:42;;;;;;;41.50;19.93;;;;;;;;;;5061273;28;20040;-51
2024/03/08 03:40:08;;;;;;;45.63;20.05;;;;;;;;;;5052064;28;20301;-51
2024/03/08 03:42:34;;;;;;;48.78;21.05;;;;;;;;;;5057801;28;20064;-55
2024/03/08 03:44:59;;;;;;;47.53;21.70;;;;;;;;;;5053868;28;20030;-51
2024/03/08 03:47:26;;;;;;;45.25;20.27;;;;;;;;;;5052940;28;20038;-52
2024/03/08 03:49:53;;;;;;;49.53;22.13;;;;;;;;;;5050001;28;20042;-48
2024/03/08 03:52:18;;;;;;;;;;;;;;;;;;5071813;28;20135;-53
2024/03/08 03:54:44;;;;;;;43.23;20.23;;;;;;;;;;5059784;28;19909;-53
2024/03/08 03:57:09;;;;;;;42.60;19.57;;;;;;;;;;5054850;28;20060;-52
2024/03/08 03:59:35;;;;;;;47.08;22.17;;;;;;;;;;5056344;28;20165;-54
2024/03/08 04:02:00;;;;;;;41.27;21.30;;;;;;;;;;5061650;28;20040;-51
2024/03/08 04:04:25;;;;;;;42.47;18.97;;;;;;;;;;5059021;28;20021;-53
2024/03/08 04:06:51;;;;;;;31.77;15.87;;;;;;;;;;5055875;28;20077;-53
2024/03/08 04:09:18;;;;;;;50.00;21.80;;;;;;;;;;5056330;28;20025;-51
2024/03/08 04:11:44;;;;;;;39.17;19.45;;;;;;;;;;5058223;28;20044;-54
2024/03/08 04:14:09;;;;;;;48.58;20.60;;;;;;;;;;5057069;28;20089;-49
2024/03/08 04:16:36;;;;;;;51.85;20.75;;;;;;;;;;5068019;28;20058;-52
2024/03/08 04:19:04;;;;;;;47.90;22.57;;;;;;;;;;5058015;28;20029;-51
2024/03/08 04:21:32;;;;;;;42.88;21.75;;;;;;;;;;5060489;28;20284;-50
2024/03/08 04:23:57;;;;;;;45.80;21.88;;;;;;;;;;5055812;28;20089;-55
2024/03/08 04:26:22;;;;;;;44.83;20.50;;;;;;;;;;5060323;28;20024;-53
2024/03/08 04:28:48;;;;;;;41.77;19.47;;;;;;;;;;5044646;28;20033;-54
2024/03/08 04:31:14;;;;;;;46.30;22.00;;;;;;;;;;5055904;28;20057;-51
2024/03/08 04:33:40;;;;;;;48.33;20.40;;;;;;;;;;5066071;28;20060;-53
2024/03/08 04:36:07;;;;;;;47.57;21.23;;;;;;;;;;5065239;28;20028;-51
2024/03/08 04:38:33;;;;;;;42.28;20.50;;;;;;;;;;5055592;28;20041;-53
2024/03/08 04:40:59;;;;;;;46.00;20.93;;;;;;;;;;5056298;28;20038;-52
2024/03/08 04:43:26;;;;;;;40.25;19.75;;;;;;;;;;5061131;28;20029;-54
2024/03/08 04:45:52;;;;;;;47.72;21.38;;;;;;;;;;5055542;28;20026;-49
2024/03/08 04:48:17;;;;;;;44.88;21.20;;;;;;;;;;5067285;28;20057;-54
2024/03/08 04:50:44;;;;;;;49.47;21.93;;;;;;;;;;5055906;28;20101;-54
2024/03/08 04:53:10;;;;;;;43.25;20.63;;;;;;;;;;5063175;28;20041;-55
2024/03/08 04:55:35;;;;;;;49.03;22.73;;;;;;;;;;5054370;28;20025;-55
2024/03/08 04:58:00;;;;;;;48.37;22.23;;;;;;;;;;5041907;28;20037;-52
2024/03/08 05:00:26;;;;;;;42.45;18.73;;;;;;;;;;5058193;28;20032;-55
2024/03/08 05:02:53;;;;;;;44.00;20.40;;;;;;;;;;5060425;28;20041;-55
2024/03/08 05:05:18;;;;;;;46.17;21.20;;;;;;;;;;5058112;28;20016;-52
2024/03/08 05:07:45;;;;;;;46.97;20.48;;;;;;;;;;5063387;28;20037;-48
2024/03/08 05:10:11;;;;;;;49.67;21.88;;;;;;;;;;5054148;28;20049;-55
2024/03/08 05:12:37;;;;;;;48.13;21.80;;;;;;;;;;5057412;28;20056;-58
2024/03/08 05:15:05;;;;;;;51.63;20.92;;;;;;;;;;5057328;28;20060;-51
2024/03/08 05:17:30;;;;;;;46.22;21.17;;;;;;;;;;5055251;28;20044;-53
2024/03/08 05:19:56;;;;;;;51.08;21.38;;;;;;;;;;5053771;28;20049;-53
2024/03/08 05:22:21;;;;;;;48.23;20.70;;;;;;;;;;5053642;28;20084;-54
2024/03/08 05:24:47;;;;;;;46.08;20.08;;;;;;;;;;5053052;28;20030;-54
2024/03/08 05:27:12;;;;;;;44.00;20.13;;;;;;;;;;5054553;28;20035;-54
2024/03/08 05:29:38;;;;;;;50.40;22.30;;;;;;;;;;5056416;28;20275;-51
2024/03/08 05:32:04;;;;;;;46.97;21.97;;;;;;;;;;5058613;28;20060;-50
2024/03/08 05:34:29;;;;;;;49.77;21.33;;;;;;;;;;5060616;28;20282;-53
2024/03/08 05:36:54;;;;;;;46.95;20.50;;;;;;;;;;5053816;28;20038;-55
2024/03/08 05:39:20;;;;;;;32.70;14.87;;;;;;;;;;5054367;28;20041;-56
2024/03/08 05:41:45;;;;;;;42.77;19.93;;;;;;;;;;5054295;28;20120;-55
2024/03/08 05:44:13;;;;;;;45.37;20.93;;;;;;;;;;5056256;28;20037;-52
2024/03/08 05:46:39;;;;;;;47.22;21.25;;;;;;;;;;5053741;28;20022;-55
2024/03/08 05:49:05;;;;;;;50.77;21.13;;;;;;;;;;5054238;28;20030;-52
2024/03/08 05:51:36;;;;;;;44.60;20.48;;;;;;;;;;5053875;28;20085;-49
2024/03/08 05:54:03;;;;;;;97.28;39.00;;;;;;;;;;5061577;28;20045;-51
2024/03/08 05:56:29;;;;;;;61.35;26.90;;;;;;;;;;5054418;28;20064;-53
2024/03/08 05:58:54;;;;;;;53.92;22.38;;;;;;;;;;5054361;28;20093;-53
2024/03/08 06:01:21;;;;;;;55.53;23.52;;;;;;;;;;5052945;28;20106;-55
2024/03/08 06:03:48;;;;;;;50.55;22.92;;;;;;;;;;5061458;28;20090;-53
2024/03/08 06:06:14;;;;;;;49.22;22.08;;;;;;;;;;5054380;28;20060;-50
2024/03/08 06:08:39;;;;;;;55.03;23.58;;;;;;;;;;5059185;28;20025;-52
2024/03/08 06:11:06;;;;;;;45.75;21.35;;;;;;;;;;5050881;28;20029;-51
2024/03/08 06:13:34;;;;;;;48.75;21.95;;;;;;;;;;5057208;28;20017;-55
2024/03/08 06:16:00;;;;;;;54.33;24.08;;;;;;;;;;5052617;28;20037;-55
2024/03/08 06:18:26;;;;;;;50.90;24.42;;;;;;;;;;5058210;28;20022;-52
2024/03/08 06:20:52;;;;;;;56.75;24.05;;;;;;;;;;5053055;28;20064;-52
2024/03/08 06:23:18;;;;;;;53.05;20.98;;;;;;;;;;5060761;28;20025;-50
2024/03/08 06:25:44;;;;;;;48.83;23.27;;;;;;;;;;5051997;28;20025;-52
2024/03/08 06:28:10;;;;;;;48.15;20.65;;;;;;;;;;5053726;28;20025;-53
2024/03/08 06:30:35;;;;;;;57.92;23.83;;;;;;;;;;5053597;28;20066;-53
2024/03/08 06:33:00;;;;;;;61.37;25.07;;;;;;;;;;5060962;28;20052;-52
2024/03/08 06:35:26;;;;;;;51.90;22.08;;;;;;;;;;5054016;28;20029;-52
2024/03/08 06:37:51;;;;;;;50.93;22.37;;;;;;;;;;5060069;28;20058;-53
2024/03/08 06:40:17;;;;;;;55.45;22.05;;;;;;;;;;5059702;28;20479;-50
2024/03/08 06:42:43;;;;;;;38.17;17.50;;;;;;;;;;5057109;28;20052;-53
2024/03/08 06:45:09;;;;;;;50.17;22.27;;;;;;;;;;5066594;28;20132;-51
2024/03/08 06:47:35;;;;;;;44.28;20.23;;;;;;;;;;5063254;28;20021;-56
2024/03/08 06:50:01;;;;;;;50.10;22.48;;;;;;;;;;5059750;28;20052;-52
2024/03/08 06:52:27;;;;;;;52.55;23.42;;;;;;;;;;5061388;28;20037;-55
2024/03/08 06:54:52;;;;;;;47.00;22.23;;;;;;;;;;5062374;28;20037;-51
2024/03/08 06:57:20;;;;;;;55.03;24.10;;;;;;;;;;5060595;28;20025;-51
2024/03/08 06:59:45;;;;;;;50.60;23.23;;;;;;;;;;5056475;28;20064;-56
2024/03/08 07:02:10;;;;;;;51.20;21.10;;;;;;;;;;5057064;28;20034;-55
2024/03/08 07:04:37;;;;;;;42.03;18.93;;;;;;;;;;5060317;28;20021;-51
2024/03/08 07:07:09;;;;;;;53.05;21.42;;;;;;;;;;5057518;28;20093;-48
2024/03/08 07:09:35;;;;;;;43.30;20.75;;;;;;;;;;5052659;28;20030;-52
2024/03/08 07:12:01;;;;;;;48.88;22.63;;;;;;;;;;5057029;28;20034;-52
2024/03/08 07:14:26;;;;;;;48.78;21.55;;;;;;;;;;5057640;28;20033;-55
2024/03/08 07:16:52;;;;;;;48.53;22.57;;;;;;;;;;5052917;28;20044;-54
2024/03/08 07:19:19;;;;;;;50.08;22.90;;;;;;;;;;5052994;28;20055;-52
2024/03/08 07:21:44;;;;;;;48.30;22.33;;;;;;;;;;5056922;28;20041;-51
2024/03/08 07:26:42;;;;;;;49.00;20.75;;;;;;;;;;5057533;28;20029;-50
2024/03/08 07:29:09;;;;;;;44.33;20.05;;;;;;;;;;5051427;28;20026;-49
2024/03/08 07:34:03;;;;;;;47.22;19.92;;;;;;;;;;5060391;28;20033;-55
2024/03/08 07:36:28;;;;;;;48.42;19.65;;;;;;;;;;5065194;28;20029;-54
2024/03/08 07:38:54;;;;;;;46.83;21.23;;;;;;;;;;5060774;28;20052;-52
2024/03/08 07:41:20;;;;;;;51.78;20.88;;;;;;;;;;5057325;28;20308;-52
2024/03/08 07:43:46;;;;;;;43.27;20.50;;;;;;;;;;5059905;28;20033;-52
2024/03/08 07:46:12;;;;;;;42.93;19.77;;;;;;;;;;5056204;28;20358;-55
2024/03/08 07:48:39;;;;;;;46.50;20.70;;;;;;;;;;5063996;28;20025;-55
2024/03/08 07:51:05;;;;;;;;;;;;;;;;;;5059224;28;20034;-52
2024/03/08 07:53:30;;;;;;;48.23;20.57;;;;;;;;;;5058228;28;19935;-49
2024/03/08 07:55:57;;;;;;;47.78;19.90;;;;;;;;;;5058229;28;20029;-52
2024/03/08 07:58:23;;;;;;;;;;;;;;;;;;5060599;28;20056;-52
2024/03/08 08:00:49;;;;;;;38.47;17.60;;;;;;;;;;5058137;28;19909;-51
2024/03/08 08:03:15;;;;;;;46.97;18.88;;;;;;;;;;5056729;28;20041;-55
2024/03/08 08:05:41;;;;;;;39.28;18.70;;;;;;;;;;5056388;28;20029;-55
2024/03/08 08:08:07;;;;;;;41.63;17.13;;;;;;;;;;5056727;28;20052;-50
2024/03/08 08:10:33;;;;;;;45.63;19.38;;;;;;;;;;5056366;28;20018;-52
2024/03/08 08:12:59;;;;;;;44.20;19.97;;;;;;;;;;5056569;28;20098;-49
2024/03/08 08:15:24;;;;;;;34.60;16.47;;;;;;;;;;5057213;28;20037;-53
2024/03/08 08:17:49;;;;;;;38.97;18.73;;;;;;;;;;5056807;28;20025;-51
2024/03/08 08:20:15;;;;;;;43.35;18.67;;;;;;;;;;5054804;28;20061;-52
2024/03/08 08:22:42;;;;;;;44.57;20.83;;;;;;;;;;5056439;28;20030;-56
2024/03/08 08:25:08;;;;;;;42.08;20.90;;;;;;;;;;5062165;28;20026;-52
2024/03/08 08:27:36;;;;;;;45.15;19.70;;;;;;;;;;5056181;28;20037;-53
2024/03/08 08:30:02;;;;;;;41.10;19.33;;;;;;;;;;5057678;28;20040;-50
2024/03/08 08:32:29;;;;;;;36.58;17.20;;;;;;;;;;5056133;28;20049;-51
2024/03/08 08:34:54;;;;;;;44.00;20.95;;;;;;;;;;5064974;28;20033;-52
2024/03/08 08:37:19;;;;;;;41.37;18.97;;;;;;;;;;5056702;28;20033;-53
2024/03/08 08:39:44;;;;;;;36.30;19.23;;;;;;;;;;5069141;28;20085;-52
2024/03/08 08:42:11;;;;;;;42.13;18.07;;;;;;;;;;5057032;28;20041;-50
2024/03/08 08:44:36;;;;;;;41.13;20.17;;;;;;;;;;5062405;28;20025;-50
2024/03/08 08:47:03;;;;;;;41.40;18.53;;;;;;;;;;5054407;28;20338;-52
2024/03/08 08:49:29;;;;;;;40.63;19.60;;;;;;;;;;5058554;28;20037;-53
2024/03/08 08:51:55;;;;;;;35.72;18.23;;;;;;;;;;5055639;28;20041;-53
2024/03/08 08:54:21;;;;;;;39.03;19.80;;;;;;;;;;5048680;28;20084;-51
2024/03/08 08:56:47;;;;;;;43.80;20.25;;;;;;;;;;5055149;28;20030;-54
2024/03/08 08:59:19;;;;;;;41.17;20.27;;;;;;;;;;5062358;28;20041;-51
2024/03/08 09:01:46;;;;;;;37.97;19.63;;;;;;;;;;5045404;28;20291;-54
2024/03/08 09:04:12;;;;;;;38.38;18.05;;;;;;;;;;5057569;28;20033;-51
2024/03/08 09:06:37;;;;;;;42.07;18.30;;;;;;;;;;5062184;28;20083;-53
2024/03/08 09:09:04;;;;;;;33.63;16.43;;;;;;;;;;5059015;28;20261;-52
2024/03/08 09:11:30;;;;;;;42.60;19.50;;;;;;;;;;5055116;28;20093;-54
2024/03/08 09:13:55;;;;;;;38.30;17.48;;;;;;;;;;5055507;28;20266;-50
2024/03/08 09:16:21;;;;;;;34.63;17.97;;;;;;;;;;5058379;28;20057;-53
2024/03/08 09:18:47;;;;;;;36.00;18.20;;;;;;;;;;5057212;28;20290;-51
2024/03/08 09:21:13;;;;;;;31.57;17.67;;;;;;;;;;5063526;28;20030;-52
2024/03/08 09:23:40;;;;;;;41.87;19.97;;;;;;;;;;5055265;28;20262;-50
2024/03/08 09:26:08;;;;;;;30.10;17.85;;;;;;;;;;5063008;28;20358;-50
2024/03/08 09:28:35;;;;;;;30.37;16.97;;;;;;;;;;5054798;28;20033;-53
2024/03/08 09:31:01;;;;;;;30.33;16.23;;;;;;;;;;5062802;28;20297;-51
2024/03/08 09:33:28;;;;;;;30.23;16.67;;;;;;;;;;5055124;28;20048;-55
2024/03/08 09:35:54;;;;;;;35.73;18.83;;;;;;;;;;5058935;28;20258;-53
2024/03/08 09:38:20;;;;;;;35.63;16.98;;;;;;;;;;5061439;28;20305;-53
2024/03/08 09:40:46;;;;;;;33.67;18.40;;;;;;;;;;5054893;28;20072;-53
2024/03/08 09:43:12;;;;;;;34.00;17.02;;;;;;;;;;5054963;28;20037;-55
2024/03/08 09:45:40;;;;;;;28.70;14.90;;;;;;;;;;5063342;28;20037;-52
2024/03/08 09:48:06;;;;;;;32.43;18.17;;;;;;;;;;5049601;28;20068;-51
2024/03/08 09:50:32;;;;;;;34.03;15.73;;;;;;;;;;5065893;28;20285;-51
2024/03/08 09:52:58;;;;;;;34.78;18.63;;;;;;;;;;5054356;28;20098;-53
2024/03/08 09:55:25;;;;;;;31.85;17.38;;;;;;;;;;5058028;28;20037;-53
2024/03/08 10:00:35;;;;;;;28.63;15.53;;;;;;;;;;5054353;28;20025;-51
2024/03/08 10:03:01;;;;;;;29.50;16.83;;;;;;;;;;5053734;28;20048;-52
2024/03/08 10:05:27;;;;;;;27.83;14.83;;;;;;;;;;5055683;28;20080;-53
2024/03/08 10:07:53;;;;;;;;;;;;;;;;;;5054824;28;20030;-51
2024/03/08 10:10:19;;;;;;;29.07;16.17;;;;;;;;;;5059990;28;19972;-50
2024/03/08 10:12:45;;;;;;;29.08;16.83;;;;;;;;;;5053240;28;20060;-54
2024/03/08 10:15:12;;;;;;;22.23;13.17;;;;;;;;;;5064301;28;20040;-51
2024/03/08 10:17:39;;;;;;;26.27;15.27;;;;;;;;;;5056079;28;20029;-54
2024/03/08 10:20:14;;;;;;;31.20;17.57;;;;;;;;;;5055898;28;20038;-49
2024/03/08 10:22:42;;;;;;;31.53;16.37;;;;;;;;;;5054126;28;20057;-51
2024/03/08 10:25:10;;;;;;;21.73;12.40;;;;;;;;;;5054522;28;20040;-54
2024/03/08 10:27:35;;;;;;;19.87;12.43;;;;;;;;;;5054091;28;20034;-51
2024/03/08 10:30:01;;;;;;;31.88;17.00;;;;;;;;;;5056754;28;20060;-58
2024/03/08 10:32:26;;;;;;;31.05;15.90;;;;;;;;;;5055257;28;20033;-51
2024/03/08 10:34:52;;;;;;;29.60;17.88;;;;;;;;;;5060322;28;20044;-50
2024/03/08 10:37:22;;;;;;;;;;;;;;;;;;5046868;28;20030;-51
2024/03/08 10:39:52;;;;;;;24.73;15.10;;;;;;;;;;5050978;28;19985;-52
2024/03/08 10:42:22;;;;;;;25.57;14.77;;;;;;;;;;5045062;28;20037;-54
2024/03/08 10:45:12;;;;;;;26.60;16.27;;;;;;;;;;5052835;28;20024;-51
2024/03/08 10:47:41;;;;;;;31.47;17.07;;;;;;;;;;5044421;28;20029;-52
2024/03/08 10:50:26;;;;;;;28.80;16.63;;;;;;;;;;5060336;28;20055;-49
2024/03/08 10:52:52;;;;;;;25.60;13.97;;;;;;;;;;5042865;28;20037;-54
2024/03/08 10:55:20;;;;;;;21.50;12.57;;;;;;;;;;5057027;28;20041;-50
2024/03/08 10:57:46;;;;;;;25.43;15.70;;;;;;;;;;5050942;28;20036;-51
2024/03/08 11:00:13;;;;;;;24.13;15.10;;;;;;;;;;5053081;28;20030;-50
2024/03/08 11:02:38;;;;;;;26.30;15.90;;;;;;;;;;5054659;28;20156;-53
2024/03/08 11:05:05;;;;;;;23.38;13.23;;;;;;;;;;5050965;28;20060;-54
2024/03/08 11:07:35;;;;;;;24.70;14.60;;;;;;;;;;5052677;28;20033;-52
2024/03/08 11:10:04;;;;;;;24.93;13.67;;;;;;;;;;5050958;28;20021;-50
2024/03/08 11:12:35;;;;;;;18.63;12.27;;;;;;;;;;5053569;28;20029;-51
2024/03/08 11:15:13;;;;;;;25.57;14.17;;;;;;;;;;5061037;28;20040;-55
2024/03/08 11:17:39;;;;;;;26.23;15.70;;;;;;;;;;5058055;28;20108;-53
2024/03/08 11:20:05;;;;;;;;;;;;;;;;;;5060898;28;20049;-49
2024/03/08 11:22:33;;;;;;;22.10;13.23;;;;;;;;;;5053610;28;19913;-53
2024/03/08 11:25:02;;;;;;;26.93;15.20;;;;;;;;;;5063406;28;20040;-49
2024/03/08 11:27:31;;;;;;;23.10;13.00;;;;;;;;;;5056812;28;20018;-52
2024/03/08 11:30:23;;;;;;;29.73;12.37;;;;;;;;;;5068045;28;20025;-55
2024/03/08 11:32:50;;;;;;;24.57;13.20;;;;;;;;;;5054418;28;20033;-49
2024/03/08 11:35:19;;;;;;;23.50;14.07;;;;;;;;;;5063782;28;20036;-52
2024/03/08 11:37:44;;;;;;;29.90;15.60;;;;;;;;;;5057369;28;20025;-52
2024/03/08 11:40:10;;;;;;;;;;;;;;;;;;5066076;28;20031;-52
2024/03/08 11:42:37;;;;;;;36.37;14.83;;;;;;;;;;5057010;28;19920;-52
2024/03/08 11:45:08;;;;;;;29.53;13.43;;;;;;;;;;5056252;28;20048;-53
2024/03/08 11:47:35;;;;;;;24.00;12.70;;;;;;;;;;5047016;28;20025;-52
2024/03/08 11:50:00;;;;;;;53.07;25.67;;;;;;;;;;5062909;28;20045;-53
2024/03/08 11:52:25;;;;;;;;;;;;;;;;;;5056839;28;20064;-51
2024/03/08 11:54:54;;;;;;;37.23;17.23;;;;;;;;;;5054984;28;19909;-50
2024/03/08 11:57:23;;;;;;;29.17;16.50;;;;;;;;;;5057078;28;20029;-55
2024/03/08 11:59:49;;;;;;;31.87;16.37;;;;;;;;;;5064222;28;20035;-53
2024/03/08 12:02:15;;;;;;;36.53;17.80;;;;;;;;;;5056502;28;20030;-53
2024/03/08 12:04:41;;;;;;;;;;;;;;;;;;5060412;28;20024;-51
2024/03/08 12:07:09;;;;;;;23.88;14.48;;;;;;;;;;5062232;28;19909;-52
2024/03/08 12:09:36;;;;;;;28.38;15.07;;;;;;;;;;5056908;28;20030;-52
2024/03/08 12:12:03;;;;;;;28.70;16.75;;;;;;;;;;5056524;28;20025;-55
2024/03/08 12:14:29;;;;;;;23.95;14.48;;;;;;;;;;5058116;28;20030;-54
2024/03/08 12:16:54;;;;;;;;;;;;;;;;;;5061867;28;20064;-52
2024/03/08 12:19:20;;;;;;;24.15;13.23;;;;;;;;;;5058375;28;19932;-50
2024/03/08 12:21:48;;;;;;;31.15;14.23;;;;;;;;;;5055098;28;20033;-52
2024/03/08 12:24:16;;;;;;;28.60;14.90;;;;;;;;;;5056679;28;20030;-51
2024/03/08 12:26:42;;;;;;;24.13;14.15;;;;;;;;;;5058910;28;20033;-53
2024/03/08 12:29:19;;;;;;;27.10;13.57;;;;;;;;;;5056231;28;20021;-53
2024/03/08 12:31:46;;;;;;;26.48;13.88;;;;;;;;;;5057084;28;20034;-53
2024/03/08 12:34:14;;;;;;;21.13;13.05;;;;;;;;;;5042794;28;20049;-50
2024/03/08 12:36:50;;;;;;;20.05;13.20;;;;;;;;;;5061184;28;20040;-54
2024/03/08 12:39:17;;;;;;;25.05;14.95;;;;;;;;;;5058611;28;20104;-52
2024/03/08 12:41:43;;;;;;;24.73;12.63;;;;;;;;;;5060609;28;20096;-53
2024/03/08 12:44:11;;;;;;;26.08;14.35;;;;;;;;;;5056020;28;20049;-52
2024/03/08 12:46:36;;;;;;;23.05;13.90;;;;;;;;;;5056327;28;20060;-52
2024/03/08 12:49:04;;;;;;;25.65;13.50;;;;;;;;;;5057442;28;20026;-53
2024/03/08 12:51:30;;;;;;;28.73;13.85;;;;;;;;;;5055897;28;20026;-55
2024/03/08 12:53:56;;;;;;;22.10;13.25;;;;;;;;;;5055978;28;20045;-52
2024/03/08 12:56:33;;;;;;;23.27;14.18;;;;;;;;;;5066725;28;20049;-51
2024/03/08 12:58:58;;;;;;;20.98;12.10;;;;;;;;;;5055968;28;20067;-54
2024/03/08 13:01:23;;;;;;;24.65;14.15;;;;;;;;;;5067661;28;20033;-54
2024/03/08 13:03:52;;;;;;;25.70;13.50;;;;;;;;;;5055641;28;20037;-51
2024/03/08 13:06:21;;;;;;;25.35;14.27;;;;;;;;;;5064066;28;20025;-52
2024/03/08 13:08:48;;;;;;;25.42;14.77;;;;;;;;;;5055508;28;20053;-52
2024/03/08 13:11:17;;;;;;;20.92;12.50;;;;;;;;;;5064779;28;20030;-54
2024/03/08 13:13:44;;;;;;;21.58;12.27;;;;;;;;;;5055080;28;20106;-55
2024/03/08 13:16:09;;;;;;;23.73;14.13;;;;;;;;;;5052549;28;20086;-56
2024/03/08 13:18:35;;;;;;;25.77;14.05;;;;;;;;;;5045698;28;20369;-54
2024/03/08 13:21:04;;;;;;;28.70;13.85;;;;;;;;;;5053312;28;20030;-52
2024/03/08 13:23:30;;;;;;;25.15;15.02;;;;;;;;;;5051436;28;20039;-54
2024/03/08 13:25:57;;;;;;;31.25;17.58;;;;;;;;;;5057771;28;20096;-55
2024/03/08 13:28:27;;;;;;;33.22;19.92;;;;;;;;;;5050793;28;20037;-53
2024/03/08 13:30:53;;;;;;;52.55;28.67;;;;;;;;;;5057243;28;20029;-54
2024/03/08 13:33:20;;;;;;;29.90;17.80;;;;;;;;;;5050961;28;20033;-53
2024/03/08 13:35:46;;;;;;;37.63;19.65;;;;;;;;;;5054968;28;20030;-49
2024/03/08 13:38:13;;;;;;;37.75;20.42;;;;;;;;;;5047481;28;20102;-52
2024/03/08 13:40:39;;;;;;;34.95;20.58;;;;;;;;;;5053198;28;20089;-55
2024/03/08 13:43:05;;;;;;;24.13;15.60;;;;;;;;;;5047379;28;20042;-53
2024/03/08 13:45:33;;;;;;;28.33;17.23;;;;;;;;;;5053816;28;20081;-51
2024/03/08 13:47:58;;;;;;;23.90;15.00;;;;;;;;;;5053312;28;20473;-51
2024/03/08 13:50:25;;;;;;;34.38;20.52;;;;;;;;;;5054239;28;20033;-52
2024/03/08 13:52:53;;;;;;;54.20;26.90;;;;;;;;;;5052797;28;20033;-53
2024/03/08 13:55:19;;;;;;;48.85;27.42;;;;;;;;;;5054368;28;20029;-52
2024/03/08 13:57:45;;;;;;;52.78;28.38;;;;;;;;;;5048792;28;20040;-52
2024/03/08 14:00:11;;;;;;;67.75;36.67;;;;;;;;;;5047432;28;20028;-47
2024/03/08 14:02:40;;;;;;;51.55;26.90;;;;;;;;;;5047248;28;20038;-53
2024/03/08 14:05:09;;;;;;;66.85;34.47;;;;;;;;;;5058667;28;20020;-49
2024/03/08 14:07:37;;;;;;;29.38;17.00;;;;;;;;;;5046719;28;20030;-50
2024/03/08 14:10:03;;;;;;;49.92;27.33;;;;;;;;;;5054222;28;20025;-54
2024/03/08 14:12:29;;;;;;;72.53;38.35;;;;;;;;;;5047349;28;20076;-54
2024/03/08 14:14:55;;;;;;;36.40;19.27;;;;;;;;;;5051401;28;20067;-52
2024/03/08 14:17:21;;;;;;;43.63;23.30;;;;;;;;;;5053285;28;20032;-54
2024/03/08 14:19:46;;;;;;;48.15;27.25;;;;;;;;;;5054556;28;20034;-50
2024/03/08 14:22:14;;;;;;;44.28;24.55;;;;;;;;;;5048197;28;20054;-54
2024/03/08 14:24:40;;;;;;;58.00;31.45;;;;;;;;;;5055938;28;20036;-52